createdAt,value
2023-05-24T00:00:18.710Z,98624.89
2023-05-24T00:03:07.245Z,98626.75
2023-05-24T00:05:41.244Z,98627.00
2023-05-24T00:08:09.269Z,98629.83
2023-05-24T00:10:37.023Z,98630.73
2023-05-24T00:13:04.754Z,98632.03
2023-05-24T00:15:32.547Z,98631.30
2023-05-24T00:18:00.354Z,98633.33
2023-05-24T00:20:29.094Z,98633.25
2023-05-24T00:22:56.928Z,98634.39
2023-05-24T00:25:24.727Z,98635.64
2023-05-24T00:27:52.601Z,98634.04
2023-05-24T00:30:20.433Z,98632.85
2023-05-24T00:32:48.185Z,98633.46
2023-05-24T00:35:16.397Z,98631.25
2023-05-24T00:37:45.516Z,98633.47
2023-05-24T00:40:13.428Z,98632.17
2023-05-24T00:42:41.573Z,98631.10
2023-05-24T00:45:10.087Z,98636.80
2023-05-24T00:47:38.214Z,98633.95
2023-05-24T00:50:08.501Z,98635.83
2023-05-24T00:52:37.083Z,98637.16
2023-05-24T00:55:06.152Z,98637.92
2023-05-24T00:57:36.115Z,98635.61
2023-05-24T01:00:05.891Z,98637.13
2023-05-24T01:02:34.443Z,98637.19
2023-05-24T01:05:03.100Z,98636.48
2023-05-24T01:07:39.768Z,98637.14
2023-05-24T01:10:17.073Z,98633.75
2023-05-24T01:13:02.036Z,98634.10
2023-05-24T01:16:12.963Z,98634.45
2023-05-24T01:18:47.072Z,98633.38
2023-05-24T01:21:38.749Z,98634.71
2023-05-24T01:24:25.978Z,98633.75
2023-05-24T01:27:06.705Z,98633.60
2023-05-24T01:29:36.463Z,98634.08
2023-05-24T01:32:05.187Z,98630.98
2023-05-24T01:34:33.024Z,98630.55
2023-05-24T01:37:01.153Z,98635.51
2023-05-24T01:39:29.906Z,98634.16
2023-05-24T01:42:16.613Z,98632.27
2023-05-24T01:45:08.943Z,98629.92
2023-05-24T01:47:52.456Z,98629.00
2023-05-24T01:50:28.370Z,98628.65
2023-05-24T01:53:02.580Z,98629.28
2023-05-24T01:55:34.748Z,98631.08
2023-05-24T01:58:04.764Z,98630.27
2023-05-24T02:00:33.647Z,98633.20
2023-05-24T02:03:02.517Z,98628.88
2023-05-24T02:05:33.219Z,98632.14
2023-05-24T02:08:01.555Z,98629.04
2023-05-24T02:10:29.912Z,98629.44
2023-05-24T02:12:59.699Z,98630.23
2023-05-24T02:15:30.584Z,98631.53
2023-05-24T02:17:58.818Z,98634.08
2023-05-24T02:20:26.936Z,98637.52
2023-05-24T02:22:55.671Z,98637.70
2023-05-24T02:25:24.079Z,98641.55
2023-05-24T02:27:52.228Z,98637.76
2023-05-24T02:30:20.202Z,98643.46
2023-05-24T02:32:47.971Z,98642.29
2023-05-24T02:35:16.370Z,98642.34
2023-05-24T02:37:44.762Z,98645.89
2023-05-24T02:40:12.741Z,98639.17
2023-05-24T02:42:40.511Z,98642.26
2023-05-24T02:45:08.457Z,98645.55
2023-05-24T02:47:36.248Z,98645.73
2023-05-24T02:50:04.606Z,98646.44
2023-05-24T02:52:33.167Z,98652.60
2023-05-24T02:55:00.928Z,98654.31
2023-05-24T02:57:28.979Z,98655.80
2023-05-24T02:59:56.704Z,98663.77
2023-05-24T03:02:24.451Z,98659.92
2023-05-24T03:04:52.678Z,98660.71
2023-05-24T03:07:20.441Z,98660.38
2023-05-24T03:09:48.166Z,98661.42
2023-05-24T03:12:15.979Z,98658.11
2023-05-24T03:14:43.681Z,98665.02
2023-05-24T03:17:11.527Z,98664.72
2023-05-24T03:19:39.246Z,98663.85
2023-05-24T03:22:07.040Z,98664.45
2023-05-24T03:24:34.809Z,98667.62
2023-05-24T03:27:02.646Z,98667.42
2023-05-24T03:29:30.754Z,98669.50
2023-05-24T03:31:58.533Z,98669.09
2023-05-24T03:34:26.351Z,98672.27
2023-05-24T03:36:54.068Z,98667.40
2023-05-24T03:39:21.835Z,98670.66
2023-05-24T03:41:49.628Z,98670.77
2023-05-24T03:44:17.379Z,98671.39
2023-05-24T03:46:45.101Z,98673.38
2023-05-24T03:49:12.877Z,98671.98
2023-05-24T03:51:40.704Z,98671.77
2023-05-24T03:54:08.377Z,98676.48
2023-05-24T03:56:37.385Z,98677.55
2023-05-24T03:59:05.155Z,98681.70
2023-05-24T04:01:34.470Z,98687.20
2023-05-24T04:04:05.588Z,98688.02
2023-05-24T04:06:33.383Z,98690.29
2023-05-24T04:09:02.022Z,98693.09
2023-05-24T04:11:30.003Z,98692.06
2023-05-24T04:14:02.103Z,98692.79
2023-05-24T04:16:31.899Z,98694.04
2023-05-24T04:19:02.224Z,98697.86
2023-05-24T04:21:32.476Z,98699.80
2023-05-24T04:24:01.794Z,98700.27
2023-05-24T04:26:30.287Z,98698.70
2023-05-24T04:28:58.295Z,98703.79
2023-05-24T04:31:30.469Z,98711.79
2023-05-24T04:33:59.576Z,98713.20
2023-05-24T04:36:28.943Z,98715.40
2023-05-24T04:39:03.023Z,98717.02
2023-05-24T04:41:32.285Z,98720.79
2023-05-24T04:44:00.493Z,98721.64
2023-05-24T04:46:28.636Z,98725.28
2023-05-24T04:48:56.404Z,98725.76
2023-05-24T04:51:24.331Z,98728.36
2023-05-24T04:53:52.098Z,98734.66
2023-05-24T04:56:20.045Z,98735.45
2023-05-24T04:58:48.328Z,98736.55
2023-05-24T05:01:16.207Z,98737.55
2023-05-24T05:03:46.085Z,98741.29
2023-05-24T05:06:14.165Z,98744.65
2023-05-24T05:08:41.967Z,98751.02
2023-05-24T05:11:10.058Z,98753.67
2023-05-24T05:13:38.240Z,98758.09
2023-05-24T05:16:06.162Z,98762.02
2023-05-24T05:18:34.246Z,98762.40
2023-05-24T05:21:03.233Z,98766.13
2023-05-24T05:23:31.579Z,98770.60
2023-05-24T05:25:59.315Z,98771.20
2023-05-24T05:28:27.555Z,98773.52
2023-05-24T05:30:56.946Z,98775.83
2023-05-24T05:33:25.115Z,98777.58
2023-05-24T05:35:54.852Z,98781.20
2023-05-24T05:38:22.884Z,98780.86
2023-05-24T05:40:50.636Z,98782.61
2023-05-24T05:43:18.881Z,98786.91
2023-05-24T05:45:46.805Z,98791.27
2023-05-24T05:48:14.581Z,98796.59
2023-05-24T05:50:42.451Z,98800.50
2023-05-24T05:53:10.674Z,98806.55
2023-05-24T05:55:38.432Z,98807.98
2023-05-24T05:58:06.573Z,98811.95
2023-05-24T06:00:34.746Z,98815.27
2023-05-24T06:03:02.584Z,98817.44
2023-05-24T06:05:30.449Z,98822.68
2023-05-24T06:07:58.196Z,98826.66
2023-05-24T06:10:26.007Z,98825.45
2023-05-24T06:12:54.357Z,98833.44
2023-05-24T06:15:23.437Z,98838.48
2023-05-24T06:17:52.616Z,98843.44
2023-05-24T06:20:20.549Z,98843.26
2023-05-24T06:22:51.017Z,98846.15
2023-05-24T06:25:20.959Z,98847.42
2023-05-24T06:27:49.412Z,98851.17
2023-05-24T06:30:18.116Z,98850.20
2023-05-24T06:32:46.081Z,98853.09
2023-05-24T06:35:14.308Z,98858.14
2023-05-24T06:37:42.072Z,98865.77
2023-05-24T06:40:10.207Z,98863.77
2023-05-24T06:42:39.873Z,98868.86
2023-05-24T06:45:09.489Z,98873.14
2023-05-24T06:47:37.371Z,98881.21
2023-05-24T06:50:05.868Z,98883.16
2023-05-24T06:52:33.602Z,98884.61
2023-05-24T06:55:01.471Z,98884.82
2023-05-24T06:57:29.728Z,98886.16
2023-05-24T06:59:57.513Z,98884.92
2023-05-24T07:02:27.783Z,98887.08
2023-05-24T07:04:55.752Z,98886.89
2023-05-24T07:07:23.764Z,98885.27
2023-05-24T07:09:51.961Z,98886.95
2023-05-24T07:12:20.283Z,98889.81
2023-05-24T07:14:48.004Z,98896.33
2023-05-24T07:17:16.193Z,98895.85
2023-05-24T07:19:44.069Z,98898.67
2023-05-24T07:22:12.782Z,98899.96
2023-05-24T07:24:41.235Z,98902.66
2023-05-24T07:27:10.095Z,98907.67
2023-05-24T07:29:37.893Z,98912.60
2023-05-24T07:32:06.844Z,98914.46
2023-05-24T07:34:34.713Z,98918.33
2023-05-24T07:37:03.029Z,98914.02
2023-05-24T07:39:31.328Z,98918.66
2023-05-24T07:41:59.149Z,98921.20
2023-05-24T07:44:27.196Z,98924.34
2023-05-24T07:46:55.841Z,98924.22
2023-05-24T07:49:24.284Z,98923.85
2023-05-24T07:51:53.229Z,98929.05
2023-05-24T07:54:21.574Z,98933.63
2023-05-24T07:56:49.362Z,98939.40
2023-05-24T07:59:17.199Z,98943.09
2023-05-24T08:01:45.070Z,98946.06
2023-05-24T08:04:12.808Z,98946.41
2023-05-24T08:06:41.881Z,98949.92
2023-05-24T08:09:10.322Z,98950.52
2023-05-24T08:11:38.121Z,98949.64
2023-05-24T08:14:05.920Z,98956.53
2023-05-24T08:16:33.667Z,98957.32
2023-05-24T08:19:01.439Z,98956.46
2023-05-24T08:21:29.681Z,98958.40
2023-05-24T08:23:58.029Z,98955.73
2023-05-24T08:26:26.200Z,98958.83
2023-05-24T08:28:54.978Z,98960.16
2023-05-24T08:31:22.866Z,98962.80
2023-05-24T08:33:51.465Z,98964.18
2023-05-24T08:36:19.828Z,98967.20
2023-05-24T08:38:48.001Z,98967.61
2023-05-24T08:41:16.041Z,98971.26
2023-05-24T08:43:44.481Z,98963.02
2023-05-24T08:46:12.847Z,98966.55
2023-05-24T08:48:48.361Z,98966.86
2023-05-24T08:51:17.961Z,98970.88
2023-05-24T08:53:49.206Z,98973.95
2023-05-24T08:56:18.624Z,98975.59
2023-05-24T08:58:47.381Z,98974.84
2023-05-24T09:01:17.282Z,98979.34
2023-05-24T09:03:47.306Z,98978.80
2023-05-24T09:06:19.752Z,98975.88
2023-05-24T09:08:52.560Z,98975.77
2023-05-24T09:11:23.064Z,98975.15
2023-05-24T09:13:51.486Z,98977.98
2023-05-24T09:16:19.436Z,98980.99
2023-05-24T09:18:47.903Z,98985.23
2023-05-24T09:21:16.235Z,98991.01
2023-05-24T09:23:45.574Z,98993.09
2023-05-24T09:26:13.373Z,98997.09
2023-05-24T09:28:42.236Z,98999.55
2023-05-24T09:31:10.157Z,98998.69
2023-05-24T09:33:39.770Z,98995.66
2023-05-24T09:36:08.539Z,98995.42
2023-05-24T09:38:36.981Z,98998.02
2023-05-24T09:41:07.357Z,98993.27
2023-05-24T09:43:47.083Z,98994.91
2023-05-24T09:46:23.119Z,98992.52
2023-05-24T09:49:03.794Z,98998.27
2023-05-24T09:51:32.563Z,98995.02
2023-05-24T09:54:03.649Z,98999.70
2023-05-24T09:56:34.274Z,99003.95
2023-05-24T09:59:08.940Z,99004.55
2023-05-24T10:01:37.483Z,99009.11
2023-05-24T10:04:10.225Z,99006.77
2023-05-24T10:06:40.041Z,99009.68
2023-05-24T10:09:09.905Z,99017.18
2023-05-24T10:11:37.758Z,99014.79
2023-05-24T10:14:09.354Z,99016.95
2023-05-24T10:16:40.495Z,99021.04
2023-05-24T10:19:08.307Z,99022.45
2023-05-24T10:21:40.203Z,99025.23
2023-05-24T10:24:11.262Z,99026.58
2023-05-24T10:26:40.072Z,99030.45
2023-05-24T10:29:16.222Z,99030.27
2023-05-24T10:31:46.749Z,99028.53
2023-05-24T10:34:15.731Z,99032.42
2023-05-24T10:36:45.109Z,99034.39
2023-05-24T10:39:32.023Z,99031.35
2023-05-24T10:42:03.206Z,99037.48
2023-05-24T10:44:32.084Z,99041.39
2023-05-24T10:47:20.726Z,99040.92
2023-05-24T10:49:53.299Z,99044.08
2023-05-24T10:52:21.451Z,99047.09
2023-05-24T10:55:10.544Z,99047.66
2023-05-24T10:57:40.165Z,99049.36
2023-05-24T11:00:30.785Z,99048.80
2023-05-24T11:03:14.365Z,99052.10
2023-05-24T11:05:49.982Z,99053.52
2023-05-24T11:08:44.548Z,99057.55
2023-05-24T11:11:23.970Z,99053.86
2023-05-24T11:13:58.155Z,99051.66
2023-05-24T11:16:39.415Z,99047.75
2023-05-24T11:19:24.558Z,99044.92
2023-05-24T11:21:53.933Z,99043.48
2023-05-24T11:24:22.441Z,99041.14
2023-05-24T11:26:55.039Z,99043.94
2023-05-24T11:29:23.338Z,99041.35
2023-05-24T11:31:57.906Z,99040.59
2023-05-24T11:34:27.562Z,99037.11
2023-05-24T11:36:56.625Z,99043.11
2023-05-24T11:39:25.790Z,99041.64
2023-05-24T11:41:54.419Z,99036.75
2023-05-24T11:44:22.317Z,99032.73
2023-05-24T11:46:50.090Z,99031.19
2023-05-24T11:49:18.037Z,99030.28
2023-05-24T11:51:46.912Z,99033.15
2023-05-24T11:54:14.678Z,99030.95
2023-05-24T11:56:42.790Z,99030.00
2023-05-24T11:59:28.095Z,99028.35
2023-05-24T12:02:01.058Z,99025.54
2023-05-24T12:04:29.811Z,99026.48
2023-05-24T12:06:58.202Z,99025.06
2023-05-24T12:09:27.107Z,99024.09
2023-05-24T12:11:55.830Z,99029.27
2023-05-24T12:14:28.041Z,99030.48
2023-05-24T12:16:57.388Z,99025.54
2023-05-24T12:19:33.897Z,99030.70
2023-05-24T12:22:06.126Z,99026.89
2023-05-24T12:24:34.734Z,99025.65
2023-05-24T12:27:07.584Z,99025.40
2023-05-24T12:29:40.985Z,99025.89
2023-05-24T12:32:13.991Z,99027.63
2023-05-24T12:34:44.500Z,99027.23
2023-05-24T12:37:13.652Z,99026.80
2023-05-24T12:39:43.965Z,99022.54
2023-05-24T12:42:13.543Z,99022.70
2023-05-24T12:44:42.554Z,99022.34
2023-05-24T12:47:10.630Z,99026.57
2023-05-24T12:49:39.422Z,99025.52
2023-05-24T12:52:07.252Z,99022.61
2023-05-24T12:54:35.224Z,99022.73
2023-05-24T12:57:03.688Z,99021.46
2023-05-24T12:59:31.584Z,99023.20
2023-05-24T13:02:11.986Z,99021.22
2023-05-24T13:04:40.545Z,99016.98
2023-05-24T13:07:08.348Z,99018.34
2023-05-24T13:09:36.225Z,99017.70
2023-05-24T13:12:05.134Z,99016.46
2023-05-24T13:14:32.880Z,99016.92
2023-05-24T13:17:01.237Z,99020.91
2023-05-24T13:19:29.665Z,99019.34
2023-05-24T13:21:57.602Z,99020.05
2023-05-24T13:24:25.401Z,99021.91
2023-05-24T13:26:54.817Z,99021.13
2023-05-24T13:29:36.768Z,99027.11
2023-05-24T13:32:11.043Z,99024.39
2023-05-24T13:34:39.547Z,99027.72
2023-05-24T13:37:07.932Z,99024.91
2023-05-24T13:39:36.949Z,99028.70
2023-05-24T13:42:05.268Z,99026.38
2023-05-24T13:44:33.017Z,99029.48
2023-05-24T13:47:02.561Z,99031.12
2023-05-24T13:49:31.002Z,99033.53
2023-05-24T13:51:59.013Z,99037.55
2023-05-24T13:54:27.544Z,99035.20
2023-05-24T13:56:57.708Z,99038.66
2023-05-24T13:59:25.914Z,99038.20
2023-05-24T14:01:54.423Z,99040.13
2023-05-24T14:04:22.638Z,99044.84
2023-05-24T14:06:50.558Z,99038.77
2023-05-24T14:09:18.457Z,99040.23
2023-05-24T14:11:46.197Z,99040.69
2023-05-24T14:16:48.569Z,99030.01
2023-05-24T14:19:17.299Z,99034.90
2023-05-24T14:21:45.182Z,99036.68
2023-05-24T14:24:12.943Z,99034.16
2023-05-24T14:26:42.134Z,99031.35
2023-05-24T14:29:10.078Z,99028.63
2023-05-24T14:31:42.475Z,99026.34
2023-05-24T14:34:11.322Z,99026.05
2023-05-24T14:36:40.496Z,99027.23
2023-05-24T14:39:08.913Z,99027.39
2023-05-24T14:41:36.691Z,99029.80
2023-05-24T14:44:04.934Z,99031.92
2023-05-24T14:46:32.886Z,99034.61
2023-05-24T14:49:02.670Z,99029.73
2023-05-24T14:51:30.443Z,99035.88
2023-05-24T14:53:58.391Z,99031.07
2023-05-24T14:56:27.520Z,99034.84
2023-05-24T14:58:55.406Z,99037.52
2023-05-24T15:01:23.418Z,99043.50
2023-05-24T15:03:51.848Z,99045.66
2023-05-24T15:06:19.990Z,99054.62
2023-05-24T15:08:47.920Z,99066.94
2023-05-24T15:11:17.654Z,99068.17
2023-05-24T15:13:45.382Z,99074.73
2023-05-24T15:16:13.115Z,99078.92
2023-05-24T15:18:41.293Z,99080.37
2023-05-24T15:21:09.315Z,99087.25
2023-05-24T15:23:37.064Z,99087.36
2023-05-24T15:26:05.796Z,99091.48
2023-05-24T15:28:33.654Z,99093.50
2023-05-24T15:31:03.809Z,99093.81
2023-05-24T15:33:32.913Z,99096.45
2023-05-24T15:36:00.858Z,99101.05
2023-05-24T15:38:28.641Z,99102.54
2023-05-24T15:40:56.938Z,99100.16
2023-05-24T15:43:24.710Z,99101.67
2023-05-24T15:45:53.717Z,99103.77
2023-05-24T15:48:22.782Z,99105.52
2023-05-24T15:51:09.381Z,99104.13
2023-05-24T15:53:38.464Z,99103.35
2023-05-24T15:56:06.771Z,99103.11
2023-05-24T15:58:35.071Z,99105.17
2023-05-24T16:01:02.931Z,99102.17
2023-05-24T16:03:31.252Z,99103.19
2023-05-24T16:05:59.018Z,99101.69
2023-05-24T16:08:28.632Z,99105.16
2023-05-24T16:10:57.384Z,99105.73
2023-05-24T16:13:25.921Z,99114.58
2023-05-24T16:15:53.757Z,99117.90
2023-05-24T16:18:23.111Z,99125.49
2023-05-24T16:20:51.872Z,99125.26
2023-05-24T16:23:23.149Z,99133.36
2023-05-24T16:25:51.663Z,99143.05
2023-05-24T16:28:24.763Z,99140.83
2023-05-24T16:30:56.150Z,99141.47
2023-05-24T16:33:25.322Z,99137.94
2023-05-24T16:35:55.892Z,99139.03
2023-05-24T16:38:25.703Z,99138.79
2023-05-24T16:40:54.248Z,99135.34
2023-05-24T16:43:22.765Z,99138.73
2023-05-24T16:45:51.501Z,99140.36
2023-05-24T16:48:21.856Z,99140.92
2023-05-24T16:50:51.687Z,99143.61
2023-05-24T16:53:23.025Z,99154.67
2023-05-24T16:55:54.112Z,99159.90
2023-05-24T16:58:23.777Z,99161.16
2023-05-24T17:00:54.462Z,99162.35
2023-05-24T17:03:28.868Z,99159.73
2023-05-24T17:06:03.263Z,99163.43
2023-05-24T17:08:36.487Z,99170.52
2023-05-24T17:11:06.420Z,99174.88
2023-05-24T17:13:34.812Z,99177.36
2023-05-24T17:16:04.759Z,99180.39
2023-05-24T17:18:32.579Z,99187.31
2023-05-24T17:21:02.249Z,99196.94
2023-05-24T17:23:32.105Z,99204.73
2023-05-24T17:26:02.726Z,99213.59
2023-05-24T17:28:30.772Z,99221.97
2023-05-24T17:31:00.557Z,99227.09
2023-05-24T17:33:30.681Z,99235.04
2023-05-24T17:36:03.045Z,99238.80
2023-05-24T17:38:33.235Z,99240.88
2023-05-24T17:41:01.658Z,99245.40
2023-05-24T17:43:32.900Z,99240.89
2023-05-24T17:46:04.159Z,99243.52
2023-05-24T17:48:34.251Z,99246.00
2023-05-24T17:51:10.051Z,99259.41
2023-05-24T17:53:38.629Z,99263.15
2023-05-24T17:56:07.480Z,99271.73
2023-05-24T17:58:38.030Z,99277.44
2023-05-24T18:01:07.739Z,99279.43
2023-05-24T18:03:37.510Z,99277.89
2023-05-24T18:06:07.684Z,99273.95
2023-05-24T18:08:38.374Z,99271.80
2023-05-24T18:11:11.157Z,99260.21
2023-05-24T18:13:40.571Z,99256.23
2023-05-24T18:16:11.150Z,99253.21
2023-05-24T18:18:39.391Z,99248.45
2023-05-24T18:21:09.768Z,99243.40
2023-05-24T18:23:38.326Z,99241.29
2023-05-24T18:26:11.565Z,99248.04
2023-05-24T18:28:41.479Z,99260.36
2023-05-24T18:31:14.915Z,99260.84
2023-05-24T18:33:43.740Z,99261.55
2023-05-24T18:36:12.838Z,99265.11
2023-05-24T18:38:41.581Z,99266.06
2023-05-24T18:41:10.203Z,99265.52
2023-05-24T18:43:38.113Z,99269.96
2023-05-24T18:46:06.815Z,99270.89
2023-05-24T18:48:34.686Z,99271.43
2023-05-24T18:51:02.988Z,99278.83
2023-05-24T18:53:30.725Z,99282.44
2023-05-24T18:55:58.438Z,99285.20
2023-05-24T18:58:26.186Z,99284.13
2023-05-24T19:00:54.641Z,99287.67
2023-05-24T19:03:23.203Z,99288.73
2023-05-24T19:05:50.964Z,99291.84
2023-05-24T19:08:18.801Z,99292.35
2023-05-24T19:10:46.666Z,99298.59
2023-05-24T19:13:14.845Z,99300.83
2023-05-24T19:15:43.512Z,99302.14
2023-05-24T19:18:11.855Z,99302.46
2023-05-24T19:20:39.684Z,99306.09
2023-05-24T19:23:07.632Z,99313.74
2023-05-24T19:25:42.023Z,99323.38
2023-05-24T19:28:11.560Z,99320.34
2023-05-24T19:30:39.737Z,99322.02
2023-05-24T19:33:08.022Z,99323.26
2023-05-24T19:35:36.992Z,99324.68
2023-05-24T19:38:04.766Z,99324.55
2023-05-24T19:40:32.526Z,99325.52
2023-05-24T19:43:00.352Z,99332.77
2023-05-24T19:45:28.682Z,99338.55
2023-05-24T19:47:57.054Z,99345.04
2023-05-24T19:50:27.500Z,99347.77
2023-05-24T19:52:56.528Z,99349.77
2023-05-24T19:55:24.240Z,99354.55
2023-05-24T19:57:51.959Z,99353.27
2023-05-24T20:00:20.452Z,99353.02
2023-05-24T20:02:48.738Z,99354.47
2023-05-24T20:05:17.469Z,99355.19
2023-05-24T20:07:45.493Z,99360.41
2023-05-24T20:10:13.321Z,99360.71
2023-05-24T20:12:42.792Z,99358.96
2023-05-24T20:15:11.644Z,99354.80
2023-05-24T20:17:39.902Z,99354.64
2023-05-24T20:20:08.374Z,99354.69
2023-05-24T20:22:36.132Z,99361.37
2023-05-24T20:25:04.116Z,99361.65
2023-05-24T20:27:31.862Z,99362.88
2023-05-24T20:30:00.162Z,99366.93
2023-05-24T20:32:28.499Z,99366.79
2023-05-24T20:34:56.321Z,99367.95
2023-05-24T20:37:24.110Z,99366.05
2023-05-24T20:39:51.911Z,99362.80
2023-05-24T20:42:19.773Z,99365.13
2023-05-24T20:44:48.185Z,99360.81
2023-05-24T20:47:18.530Z,99365.61
2023-05-24T20:49:46.433Z,99364.40
2023-05-24T20:52:14.478Z,99369.24
2023-05-24T20:54:42.984Z,99373.11
2023-05-24T20:57:10.944Z,99377.37
2023-05-24T20:59:39.171Z,99381.41
2023-05-24T21:02:07.514Z,99379.58
2023-05-24T21:04:35.329Z,99379.07
2023-05-24T21:07:03.138Z,99383.28
2023-05-24T21:09:30.904Z,99388.67
2023-05-24T21:11:59.419Z,99387.83
2023-05-24T21:14:27.753Z,99391.19
2023-05-24T21:16:55.600Z,99394.40
2023-05-24T21:19:23.425Z,99393.42
2023-05-24T21:21:51.248Z,99392.09
2023-05-24T21:24:19.113Z,99391.13
2023-05-24T21:26:47.411Z,99393.16
2023-05-24T21:29:15.768Z,99392.13
2023-05-24T21:31:43.569Z,99393.05
2023-05-24T21:34:11.373Z,99392.98
2023-05-24T21:36:39.094Z,99393.92
2023-05-24T21:39:08.468Z,99397.21
2023-05-24T21:41:38.442Z,99401.41
2023-05-24T21:44:08.240Z,99400.64
2023-05-24T21:46:36.603Z,99397.30
2023-05-24T21:49:04.524Z,99402.90
2023-05-24T21:51:32.251Z,99403.35
2023-05-24T21:54:00.438Z,99407.63
2023-05-24T21:56:28.697Z,99410.45
2023-05-24T21:58:57.062Z,99412.16
2023-05-24T22:01:24.853Z,99411.05
2023-05-24T22:03:52.596Z,99410.57
2023-05-24T22:06:20.726Z,99412.48
2023-05-24T22:08:48.492Z,99413.33
2023-05-24T22:11:16.515Z,99411.65
2023-05-24T22:13:44.286Z,99411.50
2023-05-24T22:16:12.038Z,99414.97
2023-05-24T22:18:40.020Z,99413.59
2023-05-24T22:21:07.813Z,99410.13
2023-05-24T22:23:35.965Z,99413.85
2023-05-24T22:26:03.784Z,99422.36
2023-05-24T22:28:50.827Z,99420.45
2023-05-24T22:31:20.027Z,99419.12
2023-05-24T22:33:50.938Z,99417.95
2023-05-24T22:36:18.920Z,99424.09
2023-05-24T22:38:47.123Z,99423.90
2023-05-24T22:41:14.839Z,99428.20
2023-05-24T22:43:42.547Z,99431.66
2023-05-24T22:46:10.868Z,99429.63
2023-05-24T22:48:40.671Z,99433.80
2023-05-24T22:51:09.336Z,99435.77
2023-05-24T22:53:39.249Z,99432.02
2023-05-24T22:56:10.484Z,99435.40
2023-05-24T22:58:38.490Z,99433.65
2023-05-24T23:01:06.306Z,99437.94
2023-05-24T23:03:34.450Z,99438.46
2023-05-24T23:06:04.542Z,99441.39
2023-05-24T23:08:33.318Z,99439.10
2023-05-24T23:11:01.399Z,99435.55
2023-05-24T23:13:33.420Z,99431.53
2023-05-24T23:16:01.368Z,99440.73
2023-05-24T23:18:29.398Z,99436.81
2023-05-24T23:20:57.174Z,99437.27
2023-05-24T23:23:25.929Z,99441.23
2023-05-24T23:25:53.686Z,99441.65
2023-05-24T23:28:21.907Z,99447.81
2023-05-24T23:30:49.714Z,99451.42
2023-05-24T23:33:17.552Z,99447.34
2023-05-24T23:35:45.695Z,99452.65
2023-05-24T23:38:14.840Z,99452.32
2023-05-24T23:40:42.788Z,99456.27
2023-05-24T23:43:11.070Z,99456.09
2023-05-24T23:45:38.847Z,99450.56
2023-05-24T23:48:06.828Z,99449.79
2023-05-24T23:50:46.369Z,99453.08
2023-05-24T23:53:21.617Z,99457.41
2023-05-24T23:55:49.852Z,99458.65
2023-05-24T23:58:17.742Z,99454.98
